Time;durP1;ratioP1;P1;durP2;ratioP2;P2;SDS_P1;SDS_P2;PMS_P1;PMS_P2;Temp;Humidity;BMP_temperature;BMP_pressure;BME280_temperature;BME280_humidity;BME280_pressure;Samples;Min_cycle;Max_cycle;Signal;HPM_P1;HPM_P2
2022/09/12 00:01:18;;;;;;;0.10;0.10;;;11.50;99.90;;;;;;5069584;28;20585;-89
2022/09/12 00:03:44;;;;;;;0.10;0.10;;;11.50;99.90;;;;;;5063349;28;20464;-89
2022/09/12 00:06:16;;;;;;;0.10;0.10;;;11.40;99.90;;;;;;5057908;28;20982;-89
2022/09/12 00:08:42;;;;;;;0.10;0.10;;;11.30;99.90;;;;;;5068249;28;21021;-89
2022/09/12 00:11:10;;;;;;;0.10;0.10;;;11.30;99.90;;;;;;5069319;28;20459;-89
2022/09/12 00:13:38;;;;;;;0.10;0.10;;;11.30;99.90;;;;;;5063959;28;20265;-89
2022/09/12 00:16:04;;;;;;;0.20;0.20;;;11.20;99.90;;;;;;5064936;28;20443;-90
2022/09/12 00:18:31;;;;;;;0.20;0.20;;;11.20;99.90;;;;;;5069497;28;20985;-89
2022/09/12 00:21:00;;;;;;;0.20;0.20;;;11.40;99.90;;;;;;5062002;28;20491;-90
2022/09/12 00:23:25;;;;;;;0.10;0.10;;;11.50;99.90;;;;;;5067252;28;20436;-90
2022/09/12 00:25:51;;;;;;;0.10;0.10;;;11.50;99.90;;;;;;5055543;28;20502;-90
2022/09/12 00:28:18;;;;;;;0.10;0.10;;;11.40;99.90;;;;;;5067387;28;20178;-89
2022/09/12 00:30:46;;;;;;;0.10;0.10;;;11.20;99.90;;;;;;5065210;28;20221;-90
2022/09/12 00:33:12;;;;;;;0.10;0.10;;;11.30;99.90;;;;;;5070436;28;20490;-89
2022/09/12 00:35:47;;;;;;;0.20;0.20;;;11.30;99.90;;;;;;5061854;28;20464;-90
2022/09/12 00:38:13;;;;;;;0.17;0.17;;;11.30;99.90;;;;;;5080198;28;20443;-90
2022/09/12 00:40:40;;;;;;;0.20;0.20;;;11.20;99.90;;;;;;5066453;28;20468;-90
2022/09/12 00:43:13;;;;;;;0.20;0.20;;;11.20;99.90;;;;;;5060991;28;20469;-91
2022/09/12 00:45:41;;;;;;;0.20;0.20;;;11.10;99.90;;;;;;5068143;28;21014;-90
2022/09/12 00:48:16;;;;;;;0.20;0.20;;;11.00;99.90;;;;;;5079118;28;20479;-91
2022/09/12 00:50:42;;;;;;;0.13;0.13;;;11.00;99.90;;;;;;5059860;28;20468;-90
2022/09/12 00:53:08;;;;;;;0.10;0.10;;;11.00;99.90;;;;;;5062056;28;20480;-89
2022/09/12 00:55:35;;;;;;;0.20;0.20;;;10.90;99.90;;;;;;5066723;28;20213;-90
2022/09/12 00:58:09;;;;;;;0.10;0.10;;;11.00;99.90;;;;;;5069201;28;20648;-90
2022/09/12 01:00:35;;;;;;;0.20;0.20;;;11.00;99.90;;;;;;5065047;28;20498;-90
2022/09/12 01:03:04;;;;;;;0.10;0.10;;;11.00;99.90;;;;;;5066278;28;20943;-88
2022/09/12 01:05:35;;;;;;;0.10;0.10;;;11.00;99.90;;;;;;5083529;28;20182;-90
2022/09/12 01:08:02;;;;;;;0.10;0.10;;;10.90;99.90;;;;;;5057466;28;20446;-91
2022/09/12 01:10:28;;;;;;;0.10;0.10;;;10.90;99.90;;;;;;5066432;28;20491;-90
2022/09/12 01:12:54;;;;;;;0.10;0.10;;;10.90;99.90;;;;;;5064578;28;20935;-89
2022/09/12 01:15:19;;;;;;;0.10;0.10;;;10.90;99.90;;;;;;5066517;28;20575;-89
2022/09/12 01:18:12;;;;;;;0.10;0.10;;;10.90;99.90;;;;;;5068284;28;20239;-89
2022/09/12 01:21:01;;;;;;;0.20;0.20;;;10.90;99.90;;;;;;5066475;28;20257;-90
2022/09/12 01:23:54;;;;;;;0.10;0.10;;;10.80;99.90;;;;;;5084635;28;20444;-90
2022/09/12 01:26:48;;;;;;;0.20;0.20;;;10.80;99.90;;;;;;5067425;28;20458;-90
2022/09/12 01:29:34;;;;;;;0.10;0.10;;;10.70;99.90;;;;;;5080551;28;20825;-90
2022/09/12 01:32:25;;;;;;;0.20;0.20;;;10.70;99.90;;;;;;5061679;28;20523;-91
2022/09/12 01:35:03;;;;;;;0.20;0.20;;;10.70;99.90;;;;;;5061410;28;20440;-91
2022/09/12 01:37:39;;;;;;;0.10;0.10;;;10.70;99.90;;;;;;5079974;28;20442;-90
2022/09/12 01:40:17;;;;;;;0.20;0.20;;;10.70;99.90;;;;;;5063254;28;20501;-90
2022/09/12 01:42:56;;;;;;;0.10;0.10;;;10.70;99.90;;;;;;5064500;28;20531;-90
2022/09/12 01:45:45;;;;;;;0.20;0.20;;;10.60;99.90;;;;;;5063893;28;20440;-90
2022/09/12 01:48:26;;;;;;;0.13;0.13;;;10.50;99.90;;;;;;5077805;28;20547;-91
2022/09/12 01:51:06;;;;;;;0.20;0.20;;;10.60;99.90;;;;;;5065579;28;20497;-91
2022/09/12 01:53:38;;;;;;;0.20;0.20;;;10.60;99.90;;;;;;5065374;28;20436;-91
2022/09/12 01:56:25;;;;;;;0.20;0.20;;;10.60;99.90;;;;;;5063407;28;20795;-91
2022/09/12 01:59:15;;;;;;;0.20;0.20;;;10.50;99.90;;;;;;5066122;28;20544;-90
2022/09/12 02:01:49;;;;;;;0.20;0.20;;;10.50;99.90;;;;;;5060731;28;20537;-90
2022/09/12 02:04:19;;;;;;;0.20;0.20;;;10.50;99.90;;;;;;5063720;28;20435;-90
2022/09/12 02:06:54;;;;;;;0.20;0.20;;;10.50;99.90;;;;;;5066711;28;20444;-90
2022/09/12 02:09:26;;;;;;;0.20;0.20;;;10.50;99.90;;;;;;5059969;28;20523;-90
2022/09/12 02:11:57;;;;;;;0.20;0.20;;;10.50;99.90;;;;;;5068072;28;20865;-91
2022/09/12 02:14:37;;;;;;;0.20;0.20;;;10.40;99.90;;;;;;5070323;28;20432;-89
2022/09/12 02:17:11;;;;;;;0.20;0.20;;;10.40;99.90;;;;;;5066330;28;20443;-90
2022/09/12 02:19:42;;;;;;;0.10;0.10;;;10.40;99.90;;;;;;5065702;28;20536;-89
2022/09/12 02:22:10;;;;;;;0.10;0.10;;;10.40;99.90;;;;;;5076819;28;20457;-90
2022/09/12 02:24:40;;;;;;;0.20;0.20;;;10.30;99.90;;;;;;5068511;28;20448;-90
2022/09/12 02:27:12;;;;;;;0.20;0.20;;;10.30;99.90;;;;;;5084892;28;20491;-90
2022/09/12 02:29:38;;;;;;;0.20;0.20;;;10.50;99.90;;;;;;5066700;28;20540;-90
2022/09/12 02:32:08;;;;;;;0.20;0.20;;;10.50;99.90;;;;;;5069709;28;20576;-90
2022/09/12 02:34:58;;;;;;;0.20;0.20;;;10.50;99.90;;;;;;5070941;28;20674;-90
2022/09/12 02:38:04;;;;;;;0.20;0.20;;;10.60;99.90;;;;;;5084868;28;20861;-90
2022/09/12 02:40:32;;;;;;;0.10;0.10;;;10.40;99.90;;;;;;5068457;28;20840;-90
2022/09/12 02:42:57;;;;;;;0.20;0.20;;;10.30;99.90;;;;;;5069889;28;20489;-89
2022/09/12 02:45:23;;;;;;;0.20;0.20;;;10.30;99.90;;;;;;5069716;28;20456;-89
2022/09/12 02:48:10;;;;;;;0.20;0.20;;;10.30;99.90;;;;;;5072824;28;20182;-89
2022/09/12 02:50:36;;;;;;;0.20;0.20;;;10.30;99.90;;;;;;5067115;28;20189;-90
2022/09/12 02:53:04;;;;;;;0.20;0.20;;;10.20;99.90;;;;;;5072144;28;20436;-89
2022/09/12 02:55:32;;;;;;;0.20;0.20;;;10.20;99.90;;;;;;5070720;28;20443;-89
2022/09/12 02:57:59;;;;;;;0.10;0.10;;;10.20;99.90;;;;;;5069501;28;20561;-89
2022/09/12 03:00:25;;;;;;;0.20;0.20;;;10.10;99.90;;;;;;5067228;28;20562;-89
2022/09/12 03:03:21;;;;;;;0.20;0.20;;;10.10;99.90;;;;;;5072191;28;20432;-90
2022/09/12 03:05:56;;;;;;;0.20;0.20;;;10.20;99.90;;;;;;5080091;28;20452;-90
2022/09/12 03:08:46;;;;;;;0.20;0.20;;;10.10;99.90;;;;;;5070953;28;20446;-90
2022/09/12 03:11:39;;;;;;;0.20;0.20;;;10.10;99.90;;;;;;5069756;28;20444;-90
2022/09/12 03:14:32;;;;;;;0.20;0.20;;;10.10;99.90;;;;;;5070979;28;20438;-89
2022/09/12 03:17:22;;;;;;;0.20;0.20;;;10.20;99.90;;;;;;5070529;28;20549;-89
2022/09/12 03:20:12;;;;;;;0.20;0.20;;;10.10;99.90;;;;;;5070929;28;20464;-90
2022/09/12 03:23:01;;;;;;;0.20;0.20;;;10.10;99.90;;;;;;5082133;28;20453;-90
2022/09/12 03:25:39;;;;;;;0.20;0.20;;;10.10;99.90;;;;;;5060952;28;20444;-90
2022/09/12 03:28:14;;;;;;;0.20;0.20;;;10.00;99.90;;;;;;5082901;28;20960;-90
2022/09/12 03:30:52;;;;;;;0.20;0.20;;;10.00;99.90;;;;;;5069769;28;20519;-90
2022/09/12 03:33:22;;;;;;;0.20;0.20;;;9.90;99.90;;;;;;5066615;28;20456;-88
2022/09/12 03:35:48;;;;;;;0.20;0.20;;;10.00;99.90;;;;;;5062705;28;20432;-90
2022/09/12 03:38:15;;;;;;;0.20;0.20;;;10.00;99.90;;;;;;5067897;28;20441;-89
2022/09/12 03:40:40;;;;;;;0.20;0.20;;;10.00;99.90;;;;;;5067184;28;20480;-89
2022/09/12 03:43:07;;;;;;;0.20;0.20;;;10.10;99.90;;;;;;5065897;28;20448;-90
2022/09/12 03:45:34;;;;;;;0.20;0.20;;;10.00;99.90;;;;;;5067552;28;20193;-89
2022/09/12 03:48:00;;;;;;;0.20;0.20;;;10.00;99.90;;;;;;5064104;28;20493;-89
2022/09/12 03:50:25;;;;;;;0.20;0.20;;;9.90;99.90;;;;;;5066262;28;20480;-90
2022/09/12 03:52:51;;;;;;;0.20;0.20;;;10.00;99.90;;;;;;5063759;28;20468;-89
2022/09/12 03:55:17;;;;;;;0.20;0.20;;;9.90;99.90;;;;;;5063267;28;20194;-89
2022/09/12 03:57:43;;;;;;;0.20;0.20;;;9.90;99.90;;;;;;5067498;28;20186;-89
2022/09/12 04:00:09;;;;;;;0.20;0.20;;;9.90;99.90;;;;;;5067116;28;20297;-90
2022/09/12 04:02:35;;;;;;;0.20;0.20;;;9.90;99.90;;;;;;5066654;28;20502;-89
2022/09/12 04:05:00;;;;;;;0.20;0.20;;;9.80;99.90;;;;;;5067241;28;20498;-89
2022/09/12 04:07:26;;;;;;;0.20;0.20;;;9.70;99.90;;;;;;5079862;28;20215;-89
2022/09/12 04:09:52;;;;;;;0.20;0.20;;;9.80;99.90;;;;;;5069249;28;20182;-88
2022/09/12 04:12:18;;;;;;;0.20;0.20;;;9.70;99.90;;;;;;5068022;28;20453;-88
2022/09/12 04:14:44;;;;;;;0.20;0.20;;;9.70;99.90;;;;;;5065487;28;20453;-90
2022/09/12 04:17:10;;;;;;;0.20;0.20;;;9.60;99.90;;;;;;5070050;28;20452;-89
2022/09/12 04:19:35;;;;;;;0.20;0.20;;;9.80;99.90;;;;;;5067156;28;20189;-89
2022/09/12 04:22:01;;;;;;;0.20;0.20;;;9.80;99.90;;;;;;5068355;28;20202;-89
2022/09/12 04:24:26;;;;;;;0.20;0.20;;;9.70;99.90;;;;;;5068662;28;20186;-89
2022/09/12 04:26:52;;;;;;;0.20;0.20;;;9.70;99.90;;;;;;5066490;28;20784;-89
2022/09/12 04:29:18;;;;;;;0.10;0.10;;;9.80;99.90;;;;;;5065753;28;20221;-89
2022/09/12 04:31:43;;;;;;;0.20;0.20;;;9.80;99.90;;;;;;5064923;28;20267;-89
2022/09/12 04:34:09;;;;;;;0.20;0.20;;;9.70;99.90;;;;;;5066496;28;20440;-89
2022/09/12 04:36:35;;;;;;;0.20;0.20;;;9.70;99.90;;;;;;5069921;28;20186;-90
2022/09/12 04:39:02;;;;;;;0.20;0.20;;;9.70;99.90;;;;;;5068663;28;20308;-88
2022/09/12 04:41:33;;;;;;;0.20;0.20;;;9.60;99.90;;;;;;5067055;28;20218;-89
2022/09/12 04:44:04;;;;;;;0.20;0.20;;;9.60;99.90;;;;;;5067296;28;20474;-90
2022/09/12 04:46:34;;;;;;;0.20;0.20;;;9.60;99.90;;;;;;5067727;28;20444;-89
2022/09/12 04:49:00;;;;;;;0.20;0.20;;;9.70;99.90;;;;;;5064591;28;20526;-88
2022/09/12 04:51:28;;;;;;;0.20;0.20;;;9.80;99.90;;;;;;5067385;28;20523;-89
2022/09/12 04:53:56;;;;;;;0.20;0.20;;;9.80;99.90;;;;;;5066779;28;20187;-89
2022/09/12 04:56:22;;;;;;;0.20;0.20;;;9.70;99.90;;;;;;5069476;28;21017;-88
2022/09/12 04:58:48;;;;;;;0.20;0.20;;;9.60;99.90;;;;;;5067076;28;20452;-88
2022/09/12 05:01:19;;;;;;;0.20;0.20;;;9.50;99.90;;;;;;5068264;28;20484;-89
2022/09/12 05:03:46;;;;;;;0.20;0.20;;;9.50;99.90;;;;;;5065515;28;20897;-89
2022/09/12 05:06:20;;;;;;;0.20;0.20;;;9.70;99.90;;;;;;5075665;28;20444;-89
2022/09/12 05:08:46;;;;;;;0.20;0.20;;;9.70;99.90;;;;;;5060667;28;20440;-90
2022/09/12 05:11:15;;;;;;;0.20;0.20;;;9.70;99.90;;;;;;5060559;28;20440;-90
2022/09/12 05:13:41;;;;;;;0.20;0.20;;;9.70;99.90;;;;;;5060663;28;21064;-89
2022/09/12 05:16:09;;;;;;;0.20;0.20;;;9.60;99.90;;;;;;5066665;28;20451;-88
2022/09/12 05:18:35;;;;;;;0.20;0.20;;;9.70;99.90;;;;;;5064181;28;20289;-89
2022/09/12 05:21:03;;;;;;;0.20;0.20;;;9.70;99.90;;;;;;5065582;28;20539;-88
2022/09/12 05:23:29;;;;;;;0.20;0.20;;;9.70;99.90;;;;;;5083458;28;20451;-87
2022/09/12 05:25:56;;;;;;;0.20;0.20;;;9.80;99.90;;;;;;5067545;28;20447;-88
2022/09/12 05:28:23;;;;;;;0.20;0.20;;;9.80;99.90;;;;;;5064292;28;20436;-88
2022/09/12 05:31:02;;;;;;;0.20;0.20;;;9.90;99.90;;;;;;5059833;28;20476;-89
2022/09/12 05:33:29;;;;;;;0.20;0.20;;;10.00;99.90;;;;;;5065288;28;20436;-87
2022/09/12 05:35:54;;;;;;;0.20;0.20;;;10.10;99.90;;;;;;5065912;28;20994;-89
2022/09/12 05:38:20;;;;;;;0.20;0.20;;;10.00;99.90;;;;;;5062044;28;20562;-88
2022/09/12 05:40:45;;;;;;;0.20;0.20;;;10.20;99.90;;;;;;5060917;28;20237;-90
2022/09/12 05:43:11;;;;;;;0.20;0.20;;;10.50;99.90;;;;;;5066090;28;20265;-90
2022/09/12 05:45:40;;;;;;;0.20;0.20;;;10.70;99.90;;;;;;5064833;28;20231;-90
2022/09/12 05:48:06;;;;;;;0.20;0.20;;;10.80;99.90;;;;;;5069359;28;20185;-89
2022/09/12 05:50:32;;;;;;;0.20;0.20;;;10.90;99.90;;;;;;5066748;28;20519;-88
2022/09/12 05:52:58;;;;;;;0.20;0.20;;;11.10;99.90;;;;;;5069673;28;20698;-91
2022/09/12 05:55:23;;;;;;;0.20;0.20;;;11.10;99.90;;;;;;5065297;28;20729;-90
2022/09/12 05:57:49;;;;;;;0.20;0.20;;;11.20;99.90;;;;;;5066689;28;20436;-88
2022/09/12 06:00:16;;;;;;;0.30;0.30;;;11.20;99.90;;;;;;5067697;28;20212;-88
2022/09/12 06:02:42;;;;;;;0.20;0.20;;;11.30;99.90;;;;;;5082482;28;20533;-89
2022/09/12 06:05:08;;;;;;;0.20;0.20;;;11.30;99.90;;;;;;5068072;28;20979;-88
2022/09/12 06:07:34;;;;;;;0.20;0.20;;;11.40;99.90;;;;;;5066229;28;20191;-90
2022/09/12 06:10:00;;;;;;;0.10;0.10;;;11.50;99.90;;;;;;5060102;28;20182;-87
2022/09/12 06:12:28;;;;;;;0.20;0.20;;;11.60;99.90;;;;;;5069307;28;20451;-89
2022/09/12 06:14:54;;;;;;;0.20;0.20;;;11.70;99.90;;;;;;5066466;28;20580;-88
2022/09/12 06:17:21;;;;;;;0.10;0.10;;;11.80;99.90;;;;;;5066085;28;20531;-89
2022/09/12 06:19:46;;;;;;;0.10;0.10;;;11.90;99.90;;;;;;5066892;28;20486;-89
2022/09/12 06:22:12;;;;;;;0.10;0.10;;;12.10;99.90;;;;;;5067962;28;20443;-88
2022/09/12 06:24:38;;;;;;;0.17;0.17;;;12.30;99.90;;;;;;5066488;28;20530;-89
2022/09/12 06:27:04;;;;;;;0.20;0.20;;;12.40;99.90;;;;;;5061856;28;20428;-90
2022/09/12 06:29:31;;;;;;;0.10;0.10;;;12.40;99.90;;;;;;5081516;28;20222;-91
2022/09/12 06:31:57;;;;;;;0.17;0.17;;;12.50;99.90;;;;;;5067719;28;20447;-88
2022/09/12 06:34:23;;;;;;;0.20;0.20;;;12.60;99.90;;;;;;5078122;28;20440;-89
2022/09/12 06:36:49;;;;;;;0.20;0.20;;;12.90;99.90;;;;;;5068570;28;20448;-91
2022/09/12 06:39:17;;;;;;;0.10;0.10;;;13.20;99.90;;;;;;5064118;28;20273;-91
2022/09/12 06:41:43;;;;;;;0.10;0.10;;;13.50;99.90;;;;;;5063009;28;20465;-89
2022/09/12 06:44:14;;;;;;;0.10;0.10;;;13.50;99.90;;;;;;5063243;28;20450;-89
2022/09/12 06:46:40;;;;;;;0.10;0.10;;;13.50;99.90;;;;;;5066745;28;20214;-89
2022/09/12 06:49:06;;;;;;;0.10;0.10;;;13.50;99.90;;;;;;5060257;28;20488;-89
2022/09/12 06:51:35;;;;;;;0.10;0.10;;;13.50;99.90;;;;;;5068080;28;20190;-89
2022/09/12 06:54:01;;;;;;;0.10;0.10;;;13.50;99.90;;;;;;5066984;28;20443;-89
2022/09/12 06:56:27;;;;;;;0.10;0.10;;;13.50;99.90;;;;;;5067337;28;20800;-91
2022/09/12 06:58:55;;;;;;;0.10;0.10;;;13.50;99.90;;;;;;5069716;28;20439;-90
2022/09/12 07:01:24;;;;;;;0.10;0.10;;;13.50;99.90;;;;;;5072192;28;20473;-90
2022/09/12 07:03:58;;;;;;;0.10;0.10;;;13.50;99.90;;;;;;5068613;28;20456;-90
2022/09/12 07:06:30;;;;;;;0.10;0.10;;;13.60;99.90;;;;;;5069291;28;20451;-90
2022/09/12 07:09:00;;;;;;;0.10;0.10;;;13.70;99.90;;;;;;5069540;28;20440;-87
2022/09/12 07:11:30;;;;;;;0.10;0.10;;;13.70;99.90;;;;;;5072255;28;20542;-89
2022/09/12 07:13:58;;;;;;;0.10;0.10;;;13.90;99.90;;;;;;5067585;28;20974;-87
2022/09/12 07:16:24;;;;;;;0.10;0.10;;;13.90;99.90;;;;;;5063241;28;20444;-88
2022/09/12 07:18:58;;;;;;;0.10;0.10;;;13.90;99.90;;;;;;5069352;28;20439;-88
2022/09/12 07:21:24;;;;;;;0.10;0.10;;;13.90;99.90;;;;;;5057891;28;20487;-89
2022/09/12 07:23:54;;;;;;;0.10;0.10;;;14.00;99.90;;;;;;5069228;28;21031;-90
2022/09/12 07:26:19;;;;;;;0.10;0.10;;;14.20;99.90;;;;;;5073843;28;20539;-91
2022/09/12 07:28:52;;;;;;;0.20;0.20;;;14.30;99.90;;;;;;5066086;28;20428;-90
2022/09/12 07:31:18;;;;;;;0.10;0.10;;;14.50;99.90;;;;;;5065565;28;20198;-90
2022/09/12 07:33:44;;;;;;;0.10;0.10;;;14.70;99.90;;;;;;5072748;28;20436;-92
2022/09/12 07:36:11;;;;;;;0.20;0.20;;;14.70;99.90;;;;;;5070740;28;20443;-89
2022/09/12 07:38:38;;;;;;;0.20;0.20;;;15.00;99.90;;;;;;5067346;28;20668;-90
2022/09/12 07:41:18;;;;;;;0.10;0.10;;;15.10;99.90;;;;;;5062131;28;20479;-89
2022/09/12 07:43:43;;;;;;;0.10;0.10;;;15.40;99.90;;;;;;5066658;28;20523;-89
2022/09/12 07:46:09;;;;;;;0.10;0.10;;;15.60;99.90;;;;;;5060654;28;20543;-91
2022/09/12 07:48:35;;;;;;;0.10;0.10;;;15.80;99.90;;;;;;5060642;28;20554;-90
2022/09/12 07:51:03;;;;;;;0.10;0.10;;;15.80;99.90;;;;;;5069475;28;20182;-93
2022/09/12 07:53:35;;;;;;;0.10;0.10;;;16.00;99.90;;;;;;5070108;28;20448;-91
2022/09/12 07:56:02;;;;;;;0.10;0.10;;;16.10;99.90;;;;;;5069924;28;21149;-90
2022/09/12 07:58:29;;;;;;;0.10;0.10;;;16.40;99.90;;;;;;5066412;28;20791;-87
2022/09/12 08:01:07;;;;;;;0.10;0.10;;;16.50;99.90;;;;;;5065561;28;20483;-87
2022/09/12 08:03:36;;;;;;;0.10;0.10;;;16.50;99.90;;;;;;5057820;28;20469;-87
2022/09/12 08:06:03;;;;;;;0.10;0.10;;;16.50;99.90;;;;;;5067974;28;20451;-91
2022/09/12 08:08:29;;;;;;;0.10;0.10;;;16.50;99.90;;;;;;5061778;28;20467;-89
2022/09/12 08:10:58;;;;;;;0.10;0.10;;;16.60;99.90;;;;;;5060694;28;20483;-86
2022/09/12 08:13:25;;;;;;;0.10;0.10;;;16.70;99.90;;;;;;5061396;28;20218;-87
2022/09/12 08:15:55;;;;;;;0.10;0.10;;;16.70;99.90;;;;;;5052018;28;20445;-84
2022/09/12 08:18:21;;;;;;;0.20;0.20;;;17.00;99.90;;;;;;5057343;28;20458;-89
2022/09/12 08:20:46;;;;;;;0.10;0.10;;;17.00;99.90;;;;;;5062318;28;21053;-86
2022/09/12 08:23:12;;;;;;;0.10;0.10;;;17.20;99.90;;;;;;5068579;28;20658;-87
2022/09/12 08:25:38;;;;;;;0.10;0.10;;;17.10;99.90;;;;;;5064017;28;20229;-93
2022/09/12 08:28:04;;;;;;;0.10;0.10;;;17.30;99.90;;;;;;5055315;28;21159;-87
2022/09/12 08:30:29;;;;;;;0.10;0.10;;;17.50;99.90;;;;;;5066725;28;20256;-86
2022/09/12 08:32:55;;;;;;;0.10;0.10;;;17.60;99.90;;;;;;5068100;28;20745;-86
2022/09/12 08:35:20;;;;;;;0.10;0.10;;;17.70;99.90;;;;;;5070906;28;20186;-87
2022/09/12 08:37:46;;;;;;;0.10;0.10;;;17.70;99.90;;;;;;5068363;28;20254;-87
2022/09/12 08:40:15;;;;;;;0.20;0.20;;;17.70;99.90;;;;;;5068772;28;20202;-87
2022/09/12 08:43:12;;;;;;;0.10;0.10;;;17.70;99.90;;;;;;5067969;28;20611;-87
2022/09/12 08:45:50;;;;;;;0.10;0.10;;;17.80;99.90;;;;;;5060354;28;20967;-89
2022/09/12 08:48:15;;;;;;;0.10;0.10;;;17.80;99.90;;;;;;5078916;28;20447;-89
2022/09/12 08:50:43;;;;;;;0.10;0.10;;;18.00;99.90;;;;;;5063789;28;20546;-85
2022/09/12 08:53:15;;;;;;;0.10;0.10;;;17.90;99.90;;;;;;5067669;28;20185;-87
2022/09/12 08:55:45;;;;;;;0.10;0.10;;;18.10;99.90;;;;;;5065002;28;20845;-85
2022/09/12 08:58:13;;;;;;;0.10;0.10;;;18.30;99.90;;;;;;5054802;28;20865;-86
2022/09/12 09:01:15;;;;;;;0.10;0.10;;;18.40;99.90;;;;;;5066108;28;20563;-86
2022/09/12 09:03:49;;;;;;;0.10;0.10;;;18.50;99.90;;;;;;5063660;28;20448;-87
2022/09/12 09:06:41;;;;;;;0.10;0.10;;;18.40;99.90;;;;;;5060922;28;20446;-85
2022/09/12 09:09:10;;;;;;;0.10;0.10;;;18.50;99.90;;;;;;5062598;28;20459;-86
2022/09/12 09:12:03;;;;;;;0.10;0.10;;;18.60;99.90;;;;;;5063694;28;20440;-86
2022/09/12 09:15:00;;;;;;;0.10;0.10;;;18.40;99.90;;;;;;5064844;28;20562;-87
2022/09/12 09:17:41;;;;;;;0.10;0.10;;;18.40;99.90;;;;;;5060278;28;20944;-85
2022/09/12 09:20:22;;;;;;;0.10;0.10;;;18.30;99.90;;;;;;5060706;28;20514;-85
2022/09/12 09:23:14;;;;;;;0.10;0.10;;;18.40;99.90;;;;;;5068638;28;20436;-85
2022/09/12 09:25:56;;;;;;;0.10;0.10;;;18.60;99.90;;;;;;5060848;28;20452;-86
2022/09/12 09:28:53;;;;;;;0.10;0.10;;;18.70;99.90;;;;;;5068779;28;20444;-86
2022/09/12 09:31:22;;;;;;;0.10;0.10;;;18.80;99.90;;;;;;5069049;28;21110;-85
2022/09/12 09:33:54;;;;;;;0.10;0.10;;;18.70;99.90;;;;;;5064016;28;20503;-85
2022/09/12 09:36:39;;;;;;;0.10;0.10;;;18.80;99.90;;;;;;5064962;28;20434;-86
2022/09/12 09:39:37;;;;;;;0.10;0.10;;;18.80;99.90;;;;;;5066465;28;20462;-87
2022/09/12 09:42:25;;;;;;;0.10;0.10;;;18.80;99.90;;;;;;5008733;28;20546;-87
2022/09/12 09:44:54;;;;;;;0.10;0.10;;;18.90;99.90;;;;;;5063053;28;20437;-86
2022/09/12 09:47:20;;;;;;;0.10;0.10;;;19.10;99.90;;;;;;5068628;28;20475;-86
2022/09/12 09:49:46;;;;;;;0.10;0.10;;;19.30;99.90;;;;;;5061761;28;20479;-85
2022/09/12 09:52:15;;;;;;;0.10;0.10;;;19.10;99.90;;;;;;5069812;28;20190;-85
2022/09/12 09:54:54;;;;;;;0.10;0.10;;;19.40;99.90;;;;;;5060788;28;20201;-85
2022/09/12 09:57:34;;;;;;;0.10;0.10;;;19.50;99.90;;;;;;5066329;28;20448;-87
2022/09/12 10:00:20;;;;;;;0.10;0.10;;;19.50;99.90;;;;;;5061517;28;20962;-85
2022/09/12 10:03:22;;;;;;;0.10;0.10;;;19.60;99.90;;;;;;5059002;28;20452;-85
2022/09/12 10:05:53;;;;;;;0.10;0.10;;;19.50;99.90;;;;;;5062041;28;20500;-84
2022/09/12 10:08:31;;;;;;;0.10;0.10;;;19.50;99.90;;;;;;5064283;28;20940;-86
2022/09/12 10:11:00;;;;;;;0.10;0.10;;;19.50;99.90;;;;;;5060944;28;20470;-85
2022/09/12 10:14:24;;;;;;;0.10;0.00;;;19.50;99.90;;;;;;5060617;28;20444;-86
2022/09/12 10:16:52;;;;;;;0.10;0.00;;;19.50;99.90;;;;;;4980714;28;20484;-84
2022/09/12 10:19:25;;;;;;;0.10;0.10;;;19.60;99.90;;;;;;4980902;28;21166;-84
2022/09/12 10:21:54;;;;;;;0.10;0.10;;;19.40;99.90;;;;;;5041189;28;20495;-84
2022/09/12 10:24:36;;;;;;;0.10;0.10;;;19.60;99.90;;;;;;5056680;28;20919;-86
2022/09/12 10:27:11;;;;;;;0.00;0.00;;;19.80;99.90;;;;;;5055962;28;20444;-85
2022/09/12 10:29:45;;;;;;;0.10;0.10;;;19.70;99.90;;;;;;5058013;28;21117;-86
2022/09/12 10:32:14;;;;;;;0.10;0.00;;;19.60;99.90;;;;;;5064141;28;20787;-86
2022/09/12 10:34:44;;;;;;;0.10;0.10;;;19.70;99.90;;;;;;5066721;28;20460;-85
2022/09/12 10:37:29;;;;;;;0.10;0.00;;;19.60;99.90;;;;;;5067599;28;20440;-85
2022/09/12 10:39:57;;;;;;;0.10;0.00;;;19.60;99.90;;;;;;5062073;28;20501;-85
2022/09/12 10:42:52;;;;;;;0.10;0.10;;;19.60;99.90;;;;;;5069715;28;20464;-85
2022/09/12 10:45:21;;;;;;;0.10;0.10;;;19.30;99.90;;;;;;5068286;28;20436;-84
2022/09/12 10:47:47;;;;;;;0.10;0.10;;;19.20;99.90;;;;;;5084969;28;20936;-85
2022/09/12 10:50:41;;;;;;;0.10;0.00;;;19.30;99.90;;;;;;5067828;28;20500;-85
2022/09/12 10:53:18;;;;;;;0.10;0.10;;;19.40;99.90;;;;;;5067715;28;20822;-87
2022/09/12 10:56:07;;;;;;;0.10;0.10;;;19.50;99.90;;;;;;5059551;28;22022;-86
2022/09/12 10:58:52;;;;;;;0.10;0.10;;;19.70;99.90;;;;;;5063809;28;20986;-83
2022/09/12 11:01:33;;;;;;;0.10;0.10;;;19.80;99.90;;;;;;5072280;28;20486;-85
2022/09/12 11:04:23;;;;;;;0.10;0.10;;;19.90;99.90;;;;;;5070683;28;20432;-85
2022/09/12 11:07:11;;;;;;;0.10;0.10;;;19.90;99.90;;;;;;5063106;28;20470;-84
2022/09/12 11:09:55;;;;;;;0.10;0.10;;;19.90;99.90;;;;;;5061871;28;20443;-86
2022/09/12 11:12:30;;;;;;;0.10;0.10;;;19.80;99.90;;;;;;5065941;28;20967;-85
2022/09/12 11:14:59;;;;;;;0.00;0.00;;;19.90;99.90;;;;;;5056940;28;20952;-87
2022/09/12 11:17:41;;;;;;;0.00;0.00;;;19.90;99.90;;;;;;5077826;28;20451;-84
2022/09/12 11:20:28;;;;;;;0.10;0.10;;;19.80;99.90;;;;;;5063279;28;20474;-84
2022/09/12 11:23:22;;;;;;;0.10;0.10;;;20.00;99.90;;;;;;5065946;28;20456;-84
2022/09/12 11:25:54;;;;;;;0.10;0.00;;;20.00;99.90;;;;;;5069749;28;20490;-85
2022/09/12 11:28:33;;;;;;;0.10;0.10;;;20.10;99.90;;;;;;5068511;28;21072;-84
2022/09/12 11:31:32;;;;;;;0.10;0.10;;;20.10;99.90;;;;;;5071736;28;20459;-86
2022/09/12 11:34:01;;;;;;;0.10;0.10;;;20.10;99.90;;;;;;5070386;28;20467;-86
2022/09/12 11:36:26;;;;;;;0.00;0.00;;;20.10;99.90;;;;;;5068164;28;20870;-84
2022/09/12 11:39:06;;;;;;;0.10;0.00;;;20.00;99.90;;;;;;5068599;28;20444;-85
2022/09/12 11:41:36;;;;;;;0.10;0.10;;;19.90;99.90;;;;;;5068017;28;20591;-84
2022/09/12 11:44:18;;;;;;;0.00;0.00;;;19.90;99.90;;;;;;5067015;28;20448;-86
2022/09/12 11:46:44;;;;;;;0.00;0.00;;;20.00;99.90;;;;;;5064577;28;20806;-85
2022/09/12 11:49:12;;;;;;;0.00;0.00;;;20.10;99.90;;;;;;5065781;28;20448;-85
2022/09/12 11:52:05;;;;;;;0.10;0.00;;;20.10;99.90;;;;;;5071992;28;20432;-85
2022/09/12 11:54:46;;;;;;;0.10;0.00;;;20.10;99.90;;;;;;5070894;28;21223;-84
2022/09/12 11:57:23;;;;;;;0.10;0.10;;;20.20;99.90;;;;;;5066637;28;20539;-84
2022/09/12 11:59:57;;;;;;;0.00;0.00;;;20.30;99.90;;;;;;5064740;28;20436;-85
2022/09/12 12:02:27;;;;;;;0.10;0.10;;;20.30;99.90;;;;;;5069008;28;20493;-85
2022/09/12 12:05:19;;;;;;;0.10;0.00;;;20.30;99.90;;;;;;5067484;28;21025;-85
2022/09/12 12:07:57;;;;;;;0.10;0.00;;;20.20;99.90;;;;;;5066594;28;20474;-84
2022/09/12 12:10:29;;;;;;;0.10;0.00;;;20.20;99.90;;;;;;5071703;28;20468;-84
2022/09/12 12:12:56;;;;;;;0.07;0.00;;;20.20;99.90;;;;;;5069522;28;20440;-86
2022/09/12 12:15:23;;;;;;;0.10;0.00;;;20.40;99.90;;;;;;5063982;28;20475;-84
2022/09/12 12:18:21;;;;;;;0.10;0.10;;;20.70;99.90;;;;;;5063689;28;20440;-85
2022/09/12 12:20:48;;;;;;;0.10;0.00;;;20.80;99.90;;;;;;5056657;28;20495;-86
2022/09/12 12:23:27;;;;;;;0.10;0.00;;;20.70;99.90;;;;;;5064561;28;20448;-83
2022/09/12 12:25:55;;;;;;;0.10;0.00;;;20.90;99.90;;;;;;5058034;28;20448;-83
2022/09/12 12:28:49;;;;;;;0.10;0.00;;;20.80;99.90;;;;;;5067971;28;20483;-83
2022/09/12 12:31:17;;;;;;;0.10;0.10;;;21.20;99.90;;;;;;5066539;28;20525;-85
2022/09/12 12:33:42;;;;;;;0.10;0.00;;;21.50;99.90;;;;;;5064302;28;20532;-83
2022/09/12 12:36:10;;;;;;;0.00;0.00;;;21.50;99.90;;;;;;5064533;28;20539;-87
2022/09/12 12:38:37;;;;;;;0.10;0.00;;;21.70;99.90;;;;;;5060394;28;20182;-84
2022/09/12 12:41:17;;;;;;;0.00;0.00;;;21.60;99.90;;;;;;5067847;28;20483;-83
2022/09/12 12:43:44;;;;;;;0.10;0.10;;;21.60;99.90;;;;;;5066793;28;20443;-83
2022/09/12 12:46:12;;;;;;;0.10;0.00;;;22.10;99.90;;;;;;5066499;28;20470;-86
2022/09/12 12:48:54;;;;;;;0.10;0.00;;;22.50;99.90;;;;;;5066619;28;20991;-84
2022/09/12 12:51:41;;;;;;;0.10;0.00;;;22.10;99.90;;;;;;5050538;28;20422;-85
2022/09/12 12:54:45;;;;;;;0.00;0.00;;;22.30;99.90;;;;;;5051298;28;20445;-84
2022/09/12 12:57:52;;;;;;;0.07;0.00;;;22.80;99.90;;;;;;5007017;28;20418;-86
2022/09/12 13:00:23;;;;;;;0.07;0.00;;;23.20;99.90;;;;;;4998187;28;20487;-85
2022/09/12 13:03:08;;;;;;;0.00;0.00;;;23.10;99.90;;;;;;5041307;28;20463;-84
2022/09/12 13:05:44;;;;;;;0.10;0.10;;;23.50;99.90;;;;;;5062010;28;20455;-84
2022/09/12 13:08:27;;;;;;;0.00;0.00;;;24.30;99.90;;;;;;5048785;28;20515;-84
2022/09/12 13:11:09;;;;;;;0.00;0.00;;;25.40;99.90;;;;;;5057700;28;20536;-86
2022/09/12 13:13:39;;;;;;;0.00;0.00;;;25.00;99.90;;;;;;5065455;28;20441;-86
2022/09/12 13:16:08;;;;;;;0.00;0.00;;;23.70;99.90;;;;;;5064628;28;20445;-85
2022/09/12 13:18:46;;;;;;;0.00;0.00;;;22.80;99.90;;;;;;5048560;28;20491;-85